Time;durP1;ratioP1;P1;durP2;ratioP2;P2;SDS_P1;SDS_P2;PMS_P1;PMS_P2;Temp;Humidity;BMP_temperature;BMP_pressure;BME280_temperature;BME280_humidity;BME280_pressure;Samples;Min_cycle;Max_cycle;Signal;HPM_P1;HPM_P2
2022/09/08 00:02:42;;;;;;;;;;;;;;;24.00;51.61;95212.34;10244226;28;2032;-47
2022/09/08 00:07:43;;;;;;;;;;;;;;;24.01;51.64;95216.56;10250454;28;2351;-50
2022/09/08 00:12:43;;;;;;;;;;;;;;;24.02;51.77;95212.84;10252207;28;2298;-50
2022/09/08 00:17:43;;;;;;;;;;;;;;;24.02;51.47;95210.19;10251164;28;2173;-45
2022/09/08 00:22:44;;;;;;;;;;;;;;;24.04;51.45;95212.53;10250492;28;2341;-50
2022/09/08 00:27:44;;;;;;;;;;;;;;;24.05;51.68;95220.16;10251019;28;2706;-48
2022/09/08 00:32:44;;;;;;;;;;;;;;;24.07;51.72;95236.53;10245719;28;2469;-48
2022/09/08 00:37:46;;;;;;;;;;;;;;;24.09;51.78;95228.31;10251101;28;2064;-46
2022/09/08 00:42:46;;;;;;;;;;;;;;;24.10;51.57;95238.56;10251939;28;2306;-50
2022/09/08 00:47:58;;;;;;;;;;;;;;;24.09;51.46;95237.00;10245461;28;2374;-49
2022/09/08 00:53:00;;;;;;;;;;;;;;;24.09;51.55;95221.13;10261770;28;2267;-48
2022/09/08 00:58:00;;;;;;;;;;;;;;;24.08;51.66;95227.50;10242630;28;2413;-46
2022/09/08 01:03:01;;;;;;;;;;;;;;;24.09;51.76;95226.41;10238196;28;2278;-49
2022/09/08 01:13:27;;;;;;;;;;;;;;;24.09;51.44;95237.00;10244476;28;1984;-47
2022/09/08 01:18:27;;;;;;;;;;;;;;;24.09;51.70;95218.47;10261533;28;2310;-50
2022/09/08 01:23:31;;;;;;;;;;;;;;;24.09;51.64;95199.19;10244286;28;2052;-49
2022/09/08 01:28:34;;;;;;;;;;;;;;;24.09;51.49;95205.22;10249552;28;2267;-47
2022/09/08 01:33:37;;;;;;;;;;;;;;;24.08;51.74;95198.38;10245263;28;2342;-46
2022/09/08 01:38:38;;;;;;;;;;;;;;;24.09;51.46;95237.00;10245002;28;2045;-49
2022/09/08 01:43:38;;;;;;;;;;;;;;;24.08;51.45;95246.06;10202893;28;1136956;-49
2022/09/08 01:48:38;;;;;;;;;;;;;;;24.10;51.34;95241.22;10246614;28;2281;-46
2022/09/08 01:53:38;;;;;;;;;;;;;;;24.09;51.66;95239.66;10240331;28;2272;-50
2022/09/08 01:58:39;;;;;;;;;;;;;;;24.09;51.45;95242.28;10249223;28;2066;-49
2022/09/08 02:03:40;;;;;;;;;;;;;;;24.08;51.51;95240.75;10246165;28;2345;-47
2022/09/08 02:08:43;;;;;;;;;;;;;;;24.08;51.63;95243.41;10246586;28;2372;-47
2022/09/08 02:13:44;;;;;;;;;;;;;;;24.09;51.49;95237.00;10248746;28;2038;-47
2022/09/08 02:18:44;;;;;;;;;;;;;;;24.08;51.45;95234.66;10264168;28;2345;-47
2022/09/08 02:23:45;;;;;;;;;;;;;;;24.08;51.46;95229.38;10246057;28;2645;-50
2022/09/08 02:28:46;;;;;;;;;;;;;;;24.08;51.48;95235.47;10264189;28;2274;-49
2022/09/08 02:33:46;;;;;;;;;;;;;;;24.08;51.32;95230.16;10240357;28;2337;-47
2022/09/08 02:38:50;;;;;;;;;;;;;;;24.07;51.29;95223.28;10249429;28;2481;-46
2022/09/08 02:43:53;;;;;;;;;;;;;;;24.06;51.19;95232.34;10260183;28;2328;-46
2022/09/08 02:48:53;;;;;;;;;;;;;;;24.05;51.37;95225.47;10246381;28;2337;-45
2022/09/08 02:53:55;;;;;;;;;;;;;;;24.05;51.39;95204.28;10250562;28;2337;-47
2022/09/08 02:58:55;;;;;;;;;;;;;;;24.04;51.06;95183.41;10246145;28;2357;-46
2022/09/08 03:03:55;;;;;;;;;;;;;;;24.05;50.77;95174.41;10244803;28;2842;-49
2022/09/08 03:08:55;;;;;;;;;;;;;;;24.02;50.84;95183.72;10245350;28;2060;-45
2022/09/08 03:13:56;;;;;;;;;;;;;;;24.02;50.83;95173.13;10251251;28;2330;-46
2022/09/08 03:18:57;;;;;;;;;;;;;;;24.01;51.12;95171.53;10245019;28;2376;-48
2022/09/08 03:23:57;;;;;;;;;;;;;;;24.02;51.01;95162.53;10242045;28;2260;-49
2022/09/08 03:28:57;;;;;;;;;;;;;;;24.02;50.98;95157.22;10244550;28;2361;-45
2022/09/08 03:33:58;;;;;;;;;;;;;;;24.01;50.71;95145.06;10243690;28;2505;-48
2022/09/08 03:38:58;;;;;;;;;;;;;;;24.01;50.88;95137.13;10246459;28;2343;-47
2022/09/08 03:43:58;;;;;;;;;;;;;;;23.98;50.66;95144.91;10239147;28;2385;-47
2022/09/08 03:48:58;;;;;;;;;;;;;;;24.00;50.85;95134.78;10248063;28;2044;-51
2022/09/08 03:59:24;;;;;;;;;;;;;;;24.01;50.71;95113.31;10241656;28;2322;-47
2022/09/08 04:04:24;;;;;;;;;;;;;;;23.97;50.69;95112.38;10239065;28;2337;-52
2022/09/08 04:09:25;;;;;;;;;;;;;;;23.97;50.59;95122.94;10246377;28;2386;-47
2022/09/08 04:14:25;;;;;;;;;;;;;;;23.95;50.46;95138.38;10240858;28;2054;-46
2022/09/08 04:19:26;;;;;;;;;;;;;;;23.97;50.60;95146.78;10243192;28;2297;-48
2022/09/08 04:24:26;;;;;;;;;;;;;;;23.96;50.69;95139.94;10256289;28;2284;-48
2022/09/08 04:29:26;;;;;;;;;;;;;;;23.96;50.50;95153.19;10242567;28;2441;-47
2022/09/08 04:34:27;;;;;;;;;;;;;;;23.99;50.51;95167.63;10239268;28;2495;-51
2022/09/08 04:39:27;;;;;;;;;;;;;;;23.97;50.52;95175.91;10239411;28;2394;-49
2022/09/08 04:44:28;;;;;;;;;;;;;;;23.97;50.45;95175.09;10240415;28;2610;-49
2022/09/08 04:49:28;;;;;;;;;;;;;;;23.94;50.53;95171.22;10243694;28;2006;-49
2022/09/08 04:54:28;;;;;;;;;;;;;;;23.96;50.51;95190.25;10248550;28;2382;-49
2022/09/08 04:59:29;;;;;;;;;;;;;;;23.96;50.49;95194.75;10247322;28;2278;-47
2022/09/08 05:04:29;;;;;;;;;;;;;;;23.92;50.26;95212.34;10247703;28;2040;-47
2022/09/08 05:09:29;;;;;;;;;;;;;;;23.88;50.10;95227.28;10252472;28;2273;-51
2022/09/08 05:14:30;;;;;;;;;;;;;;;23.88;50.22;95225.41;10248967;28;2334;-46
2022/09/08 05:19:31;;;;;;;;;;;;;;;23.83;49.73;95222.88;10253030;28;2406;-46
2022/09/08 05:24:31;;;;;;;;;;;;;;;23.79;49.81;95232.53;10258743;28;2012;-52
2022/09/08 05:29:32;;;;;;;;;;;;;;;23.78;49.86;95233.59;10252640;28;2291;-48
2022/09/08 05:34:32;;;;;;;;;;;;;;;23.77;49.78;95239.22;10245362;28;1996;-48
2022/09/08 05:39:32;;;;;;;;;;;;;;;23.74;49.72;95240.59;10246760;28;2642;-49
2022/09/08 05:44:32;;;;;;;;;;;;;;;23.67;49.56;95244.78;10243763;28;2055;-47
2022/09/08 05:49:33;;;;;;;;;;;;;;;23.72;49.72;95249.94;10249022;28;2287;-46
2022/09/08 05:54:34;;;;;;;;;;;;;;;23.80;49.77;95242.00;10251069;28;2343;-50
2022/09/08 05:59:35;;;;;;;;;;;;;;;23.83;49.85;95243.28;10246112;28;2323;-46
2022/09/08 06:04:35;;;;;;;;;;;;;;;23.84;49.87;95232.41;10264780;28;2249;-47
2022/09/08 06:09:35;;;;;;;;;;;;;;;23.87;50.05;95239.72;10250382;28;2320;-48
2022/09/08 06:14:35;;;;;;;;;;;;;;;23.88;49.60;95236.00;10253605;28;2098;-46
2022/09/08 06:19:36;;;;;;;;;;;;;;;23.89;50.00;95258.72;10251673;28;2401;-49
2022/09/08 06:24:36;;;;;;;;;;;;;;;23.89;50.05;95266.66;10249269;28;2049;-46
2022/09/08 06:29:39;;;;;;;;;;;;;;;23.90;49.76;95265.59;10251784;28;2498;-48
2022/09/08 06:34:40;;;;;;;;;;;;;;;23.91;49.86;95264.50;10249960;28;2444;-48
2022/09/08 06:39:45;;;;;;;;;;;;;;;23.92;49.85;95267.91;10257045;28;2358;-47
2022/09/08 06:44:46;;;;;;;;;;;;;;;23.91;49.65;95274.28;10246589;28;2396;-48
2022/09/08 06:49:46;;;;;;;;;;;;;;;23.92;49.73;95281.94;10249559;28;2376;-47
2022/09/08 06:54:46;;;;;;;;;;;;;;;23.93;49.74;95291.44;10244209;28;2347;-48
2022/09/08 06:59:52;;;;;;;;;;;;;;;23.93;49.60;95295.94;10246365;28;2373;-46
2022/09/08 07:04:56;;;;;;;;;;;;;;;23.92;49.87;95305.78;10245759;28;2041;-47
2022/09/08 07:10:15;;;;;;;;;;;;;;;23.92;49.89;95313.72;10260982;28;2505;-47
2022/09/08 07:15:25;;;;;;;;;;;;;;;23.93;49.72;95325.84;10259653;28;2329;-48
2022/09/08 07:20:25;;;;;;;;;;;;;;;23.93;49.88;95339.09;10246431;28;2343;-50
2022/09/08 07:25:27;;;;;;;;;;;;;;;23.93;49.84;95336.44;10244510;28;2339;-46
2022/09/08 07:30:28;;;;;;;;;;;;;;;23.93;49.72;95343.59;10261476;28;2367;-47
2022/09/08 07:35:35;;;;;;;;;;;;;;;23.93;49.79;95346.25;10245762;28;2397;-48
2022/09/08 07:40:43;;;;;;;;;;;;;;;23.93;49.72;95349.69;10245154;28;2344;-50
2022/09/08 07:45:50;;;;;;;;;;;;;;;23.93;49.63;95349.69;10244295;28;2392;-47
2022/09/08 07:51:10;;;;;;;;;;;;;;;23.93;49.46;95340.94;10245072;28;2044;-45
2022/09/08 07:56:17;;;;;;;;;;;;;;;23.93;49.84;95347.03;10241871;28;2394;-49
2022/09/08 08:01:17;;;;;;;;;;;;;;;23.93;49.57;95339.09;10245099;28;2060;-49
2022/09/08 08:06:19;;;;;;;;;;;;;;;23.93;49.70;95341.72;10246800;28;2136;-47
2022/09/08 08:11:21;;;;;;;;;;;;;;;23.93;49.70;95333.78;10243195;28;2290;-46
2022/09/08 08:16:34;;;;;;;;;;;;;;;23.93;49.87;95333.78;10259539;28;2004;-47
2022/09/08 08:21:37;;;;;;;;;;;;;;;23.94;49.67;95329.28;10245607;28;2362;-48
2022/09/08 08:26:56;;;;;;;;;;;;;;;23.95;49.77;95333.47;10250030;28;2137;-45
2022/09/08 08:32:09;;;;;;;;;;;;;;;23.94;49.56;95338.00;10248401;28;2312;-51
2022/09/08 08:37:10;;;;;;;;;;;;;;;23.95;49.73;95339.56;10270592;28;2367;-46
2022/09/08 08:42:17;;;;;;;;;;;;;;;23.95;49.65;95347.50;10267337;28;2074;-50
2022/09/08 08:47:20;;;;;;;;;;;;;;;23.95;49.80;95347.50;10264834;28;2284;-48
2022/09/08 08:52:35;;;;;;;;;;;;;;;23.96;49.97;95353.59;10254348;28;2432;-53
2022/09/08 08:57:47;;;;;;;;;;;;;;;23.96;49.75;95357.03;10248014;28;2409;-49
2022/09/08 09:02:53;;;;;;;;;;;;;;;23.97;49.79;95361.22;10269763;28;2297;-50
2022/09/08 09:08:17;;;;;;;;;;;;;;;23.97;49.76;95355.13;10252205;28;2341;-48
2022/09/08 09:13:35;;;;;;;;;;;;;;;23.98;49.79;95360.16;10244256;28;2318;-50
2022/09/08 09:18:54;;;;;;;;;;;;;;;23.99;49.84;95355.59;10252598;28;2005;-47
2022/09/08 09:23:59;;;;;;;;;;;;;;;24.00;49.94;95349.25;10252280;28;2358;-46
2022/09/08 09:29:03;;;;;;;;;;;;;;;24.00;49.99;95350.03;10264567;28;2065;-49
2022/09/08 09:34:16;;;;;;;;;;;;;;;24.01;49.95;95335.69;10247951;28;2271;-45
2022/09/08 09:39:35;;;;;;;;;;;;;;;24.03;49.88;95338.03;10247471;28;2416;-48
2022/09/08 09:44:39;;;;;;;;;;;;;;;24.04;49.28;95339.63;10246378;28;2358;-50
2022/09/08 09:49:53;;;;;;;;;;;;;;;24.05;49.68;95357.09;10253717;28;2334;-46
2022/09/08 09:55:12;;;;;;;;;;;;;;;24.04;49.62;95353.66;10262022;28;2427;-47
2022/09/08 10:00:19;;;;;;;;;;;;;;;24.04;49.90;95350.22;10252554;28;2353;-47
2022/09/08 10:05:38;;;;;;;;;;;;;;;24.03;49.72;95360.03;10260970;28;2272;-47
2022/09/08 10:10:50;;;;;;;;;;;;;;;24.04;50.02;95366.13;10248600;28;2457;-47
2022/09/08 10:15:57;;;;;;;;;;;;;;;24.04;49.59;95358.16;10240667;28;2353;-46
2022/09/08 10:20:57;;;;;;;;;;;;;;;24.04;49.81;95366.91;10248585;28;2272;-46
2022/09/08 10:26:03;;;;;;;;;;;;;;;24.04;50.04;95355.53;10247758;28;2068;-45
2022/09/08 10:31:06;;;;;;;;;;;;;;;24.05;49.83;95357.09;10244030;28;2337;-48
2022/09/08 10:36:07;;;;;;;;;;;;;;;24.05;49.84;95347.25;10247112;28;2357;-45
2022/09/08 10:41:22;;;;;;;;;;;;;;;24.05;49.97;95352.56;10245579;28;2303;-45
2022/09/08 10:46:31;;;;;;;;;;;;;;;24.05;49.96;95341.97;10247086;28;2044;-48
2022/09/08 10:51:35;;;;;;;;;;;;;;;24.04;49.78;95351.00;10242691;28;2293;-48
2022/09/08 10:56:37;;;;;;;;;;;;;;;24.03;49.87;95343.31;10246003;28;2333;-50
2022/09/08 11:01:41;;;;;;;;;;;;;;;24.05;49.90;95333.28;10243077;28;2321;-47
2022/09/08 11:06:57;;;;;;;;;;;;;;;24.03;49.80;95333.56;10259302;28;2344;-46
2022/09/08 11:12:04;;;;;;;;;;;;;;;24.04;49.60;95347.56;10244119;28;2431;-49
2022/09/08 11:17:13;;;;;;;;;;;;;;;24.03;49.63;95348.63;10244137;28;2317;-44
2022/09/08 11:22:24;;;;;;;;;;;;;;;24.03;49.79;95364.50;10248689;28;2042;-47
2022/09/08 11:27:28;;;;;;;;;;;;;;;24.04;49.63;95355.53;10261029;28;2427;-45
2022/09/08 11:32:34;;;;;;;;;;;;;;;24.03;49.60;95359.22;10255438;28;2416;-50
2022/09/08 11:37:53;;;;;;;;;;;;;;;24.04;49.58;95366.91;10247199;28;2298;-48
2022/09/08 11:42:59;;;;;;;;;;;;;;;24.02;49.66;95369.03;10242041;28;2077;-46
2022/09/08 11:48:13;;;;;;;;;;;;;;;24.03;49.41;95377.75;10242733;28;2342;-47
2022/09/08 11:53:32;;;;;;;;;;;;;;;24.02;49.31;95387.56;10244094;28;2319;-44
2022/09/08 11:58:46;;;;;;;;;;;;;;;24.04;49.44;95379.34;10242530;28;2367;-49
2022/09/08 12:04:06;;;;;;;;;;;;;;;24.05;49.44;95375.63;10262436;28;2303;-46
2022/09/08 12:09:15;;;;;;;;;;;;;;;24.07;49.63;95368.16;10254321;28;2388;-46
2022/09/08 12:14:16;;;;;;;;;;;;;;;24.06;49.68;95374.53;10252481;28;2491;-45
2022/09/08 12:19:22;;;;;;;;;;;;;;;24.07;49.64;95376.88;10256318;28;2355;-47
2022/09/08 12:24:35;;;;;;;;;;;;;;;24.07;49.70;95370.81;10254786;28;2345;-51
2022/09/08 12:29:39;;;;;;;;;;;;;;;24.07;49.71;95371.56;10253028;28;2038;-49
2022/09/08 12:35:00;;;;;;;;;;;;;;;24.09;49.59;95363.34;10252800;28;2047;-46
2022/09/08 12:40:12;;;;;;;;;;;;;;;24.08;49.76;95351.19;10250786;28;2542;-46
2022/09/08 12:45:21;;;;;;;;;;;;;;;24.08;49.50;95357.25;10253254;28;2339;-44
2022/09/08 12:50:25;;;;;;;;;;;;;;;24.09;49.66;95358.81;10253366;28;2377;-47
2022/09/08 12:55:31;;;;;;;;;;;;;;;24.08;49.73;95357.25;10252968;28;2022;-47
2022/09/08 13:00:36;;;;;;;;;;;;;;;24.09;49.56;95361.47;10246235;28;2584;-48
2022/09/08 13:05:48;;;;;;;;;;;;;;;24.10;49.72;95355.09;10265959;28;2349;-44
2022/09/08 13:10:49;;;;;;;;;;;;;;;24.12;49.68;95346.84;10252203;28;2348;-47
2022/09/08 13:15:52;;;;;;;;;;;;;;;24.12;49.83;95347.63;10251639;28;2397;-46
2022/09/08 13:21:23;;;;;;;;;;;;;;;24.12;49.68;95344.97;10248415;28;2659;-46
2022/09/08 13:26:36;;;;;;;;;;;;;;;24.13;49.79;95343.88;10245915;28;2396;-46
2022/09/08 13:31:37;;;;;;;;;;;;;;;24.13;49.86;95348.41;10247376;28;2349;-49
2022/09/08 13:36:41;;;;;;;;;;;;;;;24.13;50.02;95349.16;10263259;28;2337;-45
2022/09/08 13:42:04;;;;;;;;;;;;;;;24.12;50.02;95344.19;10266769;28;2359;-45
2022/09/08 13:47:17;;;;;;;;;;;;;;;24.12;49.67;95342.31;10265374;28;2072;-45
2022/09/08 13:52:40;;;;;;;;;;;;;;;24.12;49.59;95341.53;10249596;28;2321;-48
2022/09/08 13:58:04;;;;;;;;;;;;;;;24.13;49.65;95332.53;10242981;28;2270;-46
2022/09/08 14:03:04;;;;;;;;;;;;;;;24.12;49.57;95331.72;10249820;28;2285;-46
2022/09/08 14:08:05;;;;;;;;;;;;;;;24.14;49.53;95331.41;10249258;28;2483;-49
2022/09/08 14:13:08;;;;;;;;;;;;;;;24.13;49.56;95333.28;10248900;28;2418;-48
2022/09/08 14:18:11;;;;;;;;;;;;;;;24.15;49.83;95330.34;10249828;28;2410;-47
2022/09/08 14:23:14;;;;;;;;;;;;;;;24.15;49.41;95333.00;10248322;28;2323;-48
2022/09/08 14:28:16;;;;;;;;;;;;;;;24.14;49.64;95345.44;10250583;28;2032;-49
2022/09/08 14:33:18;;;;;;;;;;;;;;;24.15;49.77;95333.00;10247211;28;2294;-46
2022/09/08 14:38:29;;;;;;;;;;;;;;;24.16;49.65;95339.84;10247493;28;2456;-49
2022/09/08 14:43:48;;;;;;;;;;;;;;;24.16;49.55;95337.97;10256747;28;2317;-47
2022/09/08 14:48:55;;;;;;;;;;;;;;;24.16;49.37;95334.53;10243361;28;2068;-47
2022/09/08 14:54:02;;;;;;;;;;;;;;;24.17;49.51;95330.81;10244139;28;2271;-49
2022/09/08 14:59:04;;;;;;;;;;;;;;;24.16;49.61;95332.69;10245353;28;2341;-47
2022/09/08 15:04:08;;;;;;;;;;;;;;;24.17;49.69;95323.63;10244863;28;2379;-48
2022/09/08 15:09:14;;;;;;;;;;;;;;;24.16;49.69;95322.09;10244281;28;2483;-45
2022/09/08 15:14:30;;;;;;;;;;;;;;;24.17;49.46;95336.88;10261797;28;2042;-49
2022/09/08 15:19:31;;;;;;;;;;;;;;;24.16;49.58;95324.72;10246196;28;2044;-47
2022/09/08 15:24:32;;;;;;;;;;;;;;;24.17;49.70;95330.81;10245884;28;2354;-45
2022/09/08 15:29:56;;;;;;;;;;;;;;;24.16;49.43;95332.69;10243188;28;2392;-47
2022/09/08 15:35:09;;;;;;;;;;;;;;;24.17;49.71;95333.47;10235840;28;2490;-48
2022/09/08 15:40:14;;;;;;;;;;;;;;;24.16;49.50;95332.69;10239738;28;2422;-50
2022/09/08 15:45:21;;;;;;;;;;;;;;;24.16;49.59;95330.03;10236444;28;2276;-48
2022/09/08 15:50:28;;;;;;;;;;;;;;;24.14;49.28;95324.25;10255101;28;2297;-47
2022/09/08 15:55:29;;;;;;;;;;;;;;;24.12;49.18;95326.44;10233243;28;2005;-48
2022/09/08 16:00:57;;;;;;;;;;;;;;;24.06;47.88;95338.25;10236185;28;2364;-46
2022/09/08 16:05:57;;;;;;;;;;;;;;;24.00;47.17;95323.56;10223374;28;2692;-51
2022/09/08 16:10:57;;;;;;;;;;;;;;;23.97;46.63;95324.16;10243589;28;2285;-49
2022/09/08 16:16:00;;;;;;;;;;;;;;;23.93;46.16;95328.50;10243134;28;2033;-50
2022/09/08 16:21:06;;;;;;;;;;;;;;;23.90;46.07;95323.81;10244025;28;2393;-48
2022/09/08 16:26:20;;;;;;;;;;;;;;;23.88;45.68;95318.06;10256090;28;2323;-41
2022/09/08 16:31:25;;;;;;;;;;;;;;;23.84;45.17;95319.75;10243351;28;2121;-41
2022/09/08 16:36:28;;;;;;;;;;;;;;;23.82;45.05;95313.94;10238249;28;2372;-52
2022/09/08 16:41:30;;;;;;;;;;;;;;;23.80;44.48;95308.19;10255069;28;2439;-43
2022/09/08 16:46:35;;;;;;;;;;;;;;;23.75;44.40;95305.69;10261955;28;2533;-42
2022/09/08 16:51:40;;;;;;;;;;;;;;;23.70;43.85;95311.09;10255479;28;2629;-45
2022/09/08 16:57:10;;;;;;;;;;;;;;;23.66;43.83;95307.50;10254198;28;2370;-43
2022/09/08 17:02:19;;;;;;;;;;;;;;;23.63;43.62;95305.47;10244538;28;2375;-43
2022/09/08 17:07:30;;;;;;;;;;;;;;;23.61;43.37;95310.28;10252651;28;2618;-45
2022/09/08 17:12:31;;;;;;;;;;;;;;;23.65;43.83;95313.88;10250937;28;2636;-46
2022/09/08 17:17:50;;;;;;;;;;;;;;;23.68;43.85;95315.91;10256564;28;2597;-41
2022/09/08 17:22:53;;;;;;;;;;;;;;;23.74;43.85;95332.47;10248812;28;2355;-45
2022/09/08 17:28:03;;;;;;;;;;;;;;;23.73;43.85;95328.22;10249845;28;2626;-46
2022/09/08 17:33:04;;;;;;;;;;;;;;;23.68;43.28;95350.31;10263087;28;2630;-44
2022/09/08 17:38:12;;;;;;;;;;;;;;;23.62;43.49;95354.16;10256124;28;2723;-45
2022/09/08 17:43:14;;;;;;;;;;;;;;;23.60;43.29;95350.25;10264204;28;2640;-44
2022/09/08 17:48:16;;;;;;;;;;;;;;;23.56;43.67;95362.53;10249340;28;2319;-47
2022/09/08 17:53:32;;;;;;;;;;;;;;;23.57;43.88;95364.09;10264674;28;2659;-44
2022/09/08 17:58:33;;;;;;;;;;;;;;;23.61;48.03;95365.84;10250430;28;2708;-43
2022/09/08 18:03:44;;;;;;;;;;;;;;;23.51;48.83;95376.69;10260070;28;2336;-47
2022/09/08 18:08:44;;;;;;;;;;;;;;;23.38;49.17;95388.09;10252115;28;2325;-48
2022/09/08 18:13:45;;;;;;;;;;;;;;;23.32;49.78;95387.44;10260922;28;2623;-45
2022/09/08 18:19:12;;;;;;;;;;;;;;;23.30;50.16;95388.78;10246448;28;2626;-46
2022/09/08 18:24:25;;;;;;;;;;;;;;;23.26;50.37;95393.09;10246651;28;2613;-44
2022/09/08 18:29:32;;;;;;;;;;;;;;;23.21;50.53;95406.41;10256985;28;2600;-45
2022/09/08 18:34:38;;;;;;;;;;;;;;;23.18;50.14;95405.16;10256235;28;2608;-46
2022/09/08 18:39:43;;;;;;;;;;;;;;;23.12;50.70;95408.22;10272140;28;2622;-44
2022/09/08 18:44:45;;;;;;;;;;;;;;;23.12;51.38;95418.78;10251921;28;2274;-44
2022/09/08 18:50:04;;;;;;;;;;;;;;;23.09;51.92;95422.00;10260072;28;2670;-45
2022/09/08 18:55:20;;;;;;;;;;;;;;;23.06;51.50;95417.34;10270124;28;2412;-51
2022/09/08 19:00:22;;;;;;;;;;;;;;;23.02;51.06;95419.00;10258300;28;2274;-57
2022/09/08 19:05:25;;;;;;;;;;;;;;;22.98;50.94;95423.31;10242410;28;2620;-48
2022/09/08 19:10:35;;;;;;;;;;;;;;;22.96;51.40;95417.53;10244699;28;2683;-48
2022/09/08 19:15:36;;;;;;;;;;;;;;;22.98;51.72;95425.97;10247556;28;2596;-49
2022/09/08 19:20:46;;;;;;;;;;;;;;;22.94;51.46;95428.41;10244482;28;2676;-49
2022/09/08 19:26:04;;;;;;;;;;;;;;;22.84;51.23;95425.97;10243728;28;2622;-40
2022/09/08 19:31:24;;;;;;;;;;;;;;;22.74;51.25;95428.81;10249699;28;2305;-48
2022/09/08 19:36:43;;;;;;;;;;;;;;;22.72;51.41;95430.97;10246235;28;2297;-48
2022/09/08 19:41:54;;;;;;;;;;;;;;;22.77;50.96;95422.97;10245571;28;2569;-42
2022/09/08 19:47:14;;;;;;;;;;;;;;;22.70;50.93;95427.84;10248746;28;2572;-49
2022/09/08 19:52:27;;;;;;;;;;;;;;;22.61;51.11;95429.59;10241500;28;2789;-42
2022/09/08 19:57:29;;;;;;;;;;;;;;;22.59;50.91;95429.09;10245081;28;2748;-41
2022/09/08 20:02:32;;;;;;;;;;;;;;;22.57;51.23;95434.66;10244902;28;2590;-44
2022/09/08 20:07:35;;;;;;;;;;;;;;;22.56;51.48;95433.09;10249248;28;2628;-44
2022/09/08 20:12:37;;;;;;;;;;;;;;;22.56;51.87;95438.41;10259705;28;2665;-48
2022/09/08 20:17:44;;;;;;;;;;;;;;;22.55;52.10;95439.47;10263497;28;2633;-48
2022/09/08 20:22:51;;;;;;;;;;;;;;;22.59;52.21;95443.09;10249808;28;2392;-48
2022/09/08 20:28:00;;;;;;;;;;;;;;;22.58;52.13;95435.47;10255227;28;2336;-48
2022/09/08 20:33:10;;;;;;;;;;;;;;;22.55;51.65;95436.03;10251095;28;2415;-48
2022/09/08 20:38:28;;;;;;;;;;;;;;;22.58;51.85;95446.84;10248493;28;2468;-48
2022/09/08 20:43:32;;;;;;;;;;;;;;;22.55;51.38;95449.22;10250001;28;2640;-49
2022/09/08 20:49:05;;;;;;;;;;;;;;;22.53;52.22;95446.88;10250828;28;2512;-41
2022/09/08 20:54:05;;;;;;;;;;;;;;;22.53;51.71;95457.47;10234246;28;2505;-42
2022/09/08 20:59:09;;;;;;;;;;;;;;;22.51;51.34;95466.75;10255599;28;2289;-42
2022/09/08 21:04:18;;;;;;;;;;;;;;;22.54;52.09;95460.88;10245113;28;2598;-43
2022/09/08 21:09:26;;;;;;;;;;;;;;;22.53;51.34;95459.31;10246387;28;2467;-41
2022/09/08 21:14:56;;;;;;;;;;;;;;;22.51;51.90;95462.25;10264367;28;2741;-42
2022/09/08 21:20:04;;;;;;;;;;;;;;;22.50;51.43;95468.59;10196344;28;2584;-41
2022/09/08 21:25:17;;;;;;;;;;;;;;;22.50;51.40;95476.50;10262630;28;2377;-41
2022/09/08 21:30:19;;;;;;;;;;;;;;;22.51;51.75;95475.47;10254426;28;2578;-43
2022/09/08 21:35:32;;;;;;;;;;;;;;;22.52;51.54;95470.97;10262022;28;2714;-43
2022/09/08 21:40:44;;;;;;;;;;;;;;;22.56;51.23;95469.31;10246688;28;2614;-44
2022/09/08 21:45:45;;;;;;;;;;;;;;;22.53;50.86;95469.88;10246637;28;2708;-42
2022/09/08 21:50:54;;;;;;;;;;;;;;;22.48;50.79;95462.81;10247268;28;2703;-41
2022/09/08 21:55:55;;;;;;;;;;;;;;;22.47;51.30;95469.19;10247892;28;2298;-42
2022/09/08 22:00:58;;;;;;;;;;;;;;;22.53;51.01;95470.66;10264975;28;2392;-43
2022/09/08 22:05:59;;;;;;;;;;;;;;;22.48;51.20;95470.75;10244456;28;2645;-41
2022/09/08 22:10:59;;;;;;;;;;;;;;;22.46;50.76;95475.53;10264375;28;2724;-42
2022/09/08 22:16:15;;;;;;;;;;;;;;;22.44;50.64;95472.41;10245722;28;2587;-41
2022/09/08 22:21:22;;;;;;;;;;;;;;;22.46;50.79;95478.19;10247943;28;2650;-42
2022/09/08 22:26:29;;;;;;;;;;;;;;;22.45;51.07;95475.84;10258597;28;2749;-42
2022/09/08 22:31:51;;;;;;;;;;;;;;;22.48;50.69;95478.66;10245613;28;2648;-42
2022/09/08 22:37:02;;;;;;;;;;;;;;;22.47;50.65;95477.13;10243394;28;2400;-43
2022/09/08 22:42:22;;;;;;;;;;;;;;;22.47;50.77;95479.75;10244949;28;2617;-43
2022/09/08 22:47:37;;;;;;;;;;;;;;;22.47;50.59;95471.84;10244850;28;2608;-49
2022/09/08 22:52:56;;;;;;;;;;;;;;;22.44;50.44;95482.22;10260688;28;2661;-42
2022/09/08 22:57:56;;;;;;;;;;;;;;;22.44;50.53;95490.88;10248390;28;2647;-42
2022/09/08 23:02:56;;;;;;;;;;;;;;;22.46;50.85;95486.09;10244383;28;2637;-42
2022/09/08 23:07:56;;;;;;;;;;;;;;;22.45;50.85;95484.53;10248371;28;2562;-46
2022/09/08 23:13:10;;;;;;;;;;;;;;;22.46;50.47;95478.19;10246289;28;2364;-49
2022/09/08 23:18:16;;;;;;;;;;;;;;;22.45;50.35;95481.91;10244264;28;2597;-42
2022/09/08 23:23:23;;;;;;;;;;;;;;;22.45;50.16;95481.13;10247180;28;2625;-44
2022/09/08 23:28:27;;;;;;;;;;;;;;;22.44;50.53;95477.69;10249411;28;2655;-42
2022/09/08 23:33:29;;;;;;;;;;;;;;;22.49;50.01;95487.38;10261680;28;2647;-42
2022/09/08 23:38:29;;;;;;;;;;;;;;;22.47;49.87;95479.75;10261703;28;2580;-42
2022/09/08 23:43:33;;;;;;;;;;;;;;;22.45;50.31;95473.97;10247968;28;2627;-43
2022/09/08 23:48:33;;;;;;;;;;;;;;;22.46;49.66;95469.50;10249151;28;2617;-45
2022/09/08 23:53:35;;;;;;;;;;;;;;;22.45;50.03;95466.06;10249915;28;2373;-42
2022/09/08 23:58:36;;;;;;;;;;;;;;;22.42;49.75;95473.78;10250111;28;2649;-42
